Time;durP1;ratioP1;P1;durP2;ratioP2;P2;SDS_P1;SDS_P2;PMS_P1;PMS_P2;Temp;Humidity;BMP_temperature;BMP_pressure;BME280_temperature;BME280_humidity;BME280_pressure;Samples;Min_cycle;Max_cycle;Signal;HPM_P1;HPM_P2
2023/05/26 00:01:40;;;;;;;15.93;11.20;;;11.00;99.90;;;;;;5030433;28;20978;-71
2023/05/26 00:04:07;;;;;;;18.67;10.70;;;11.00;99.90;;;;;;5030758;28;20450;-71
2023/05/26 00:06:33;;;;;;;20.37;10.80;;;11.00;99.90;;;;;;5030515;28;20535;-71
2023/05/26 00:09:01;;;;;;;19.20;10.90;;;11.00;99.90;;;;;;5032435;28;20484;-71
2023/05/26 00:11:29;;;;;;;20.63;11.13;;;10.90;99.90;;;;;;5038627;28;20481;-71
2023/05/26 00:13:56;;;;;;;22.83;11.47;;;10.90;99.90;;;;;;5040975;28;20458;-71
2023/05/26 00:16:22;;;;;;;20.33;11.83;;;10.90;99.90;;;;;;5030680;28;20824;-71
2023/05/26 00:18:49;;;;;;;17.50;11.37;;;10.90;99.90;;;;;;5030215;28;20454;-71
2023/05/26 00:21:16;;;;;;;16.07;11.97;;;10.80;99.90;;;;;;5030533;28;20465;-71
2023/05/26 00:23:42;;;;;;;25.20;12.27;;;10.80;99.90;;;;;;5040089;28;20777;-71
2023/05/26 00:26:09;;;;;;;22.93;11.57;;;10.80;99.90;;;;;;5036566;28;20540;-71
2023/05/26 00:28:37;;;;;;;24.40;11.97;;;10.80;99.90;;;;;;5029855;28;20496;-70
2023/05/26 00:31:03;;;;;;;23.97;11.93;;;10.80;99.90;;;;;;5036118;28;20470;-70
2023/05/26 00:33:30;;;;;;;17.73;11.63;;;10.80;99.90;;;;;;5030148;28;20523;-71
2023/05/26 00:35:57;;;;;;;20.77;12.23;;;10.80;99.90;;;;;;5034121;28;20471;-71
2023/05/26 00:38:23;;;;;;;22.80;12.30;;;10.80;99.90;;;;;;5041076;28;20452;-71
2023/05/26 00:40:51;;;;;;;21.77;11.83;;;10.70;99.90;;;;;;5034719;28;21014;-71
2023/05/26 00:43:17;;;;;;;15.83;11.00;;;10.70;99.90;;;;;;5034473;28;20453;-71
2023/05/26 00:45:45;;;;;;;25.40;12.50;;;10.70;99.90;;;;;;5034240;28;20449;-70
2023/05/26 00:48:12;;;;;;;29.40;11.90;;;10.70;99.90;;;;;;5039083;28;20769;-71
2023/05/26 00:50:38;;;;;;;24.33;12.10;;;10.70;99.90;;;;;;5037945;28;20489;-70
2023/05/26 00:53:05;;;;;;;17.87;11.27;;;10.60;99.90;;;;;;5038472;28;20510;-71
2023/05/26 00:55:33;;;;;;;18.23;12.00;;;10.60;99.90;;;;;;5037093;28;20450;-71
2023/05/26 00:58:00;;;;;;;21.80;11.90;;;10.60;99.90;;;;;;5034041;28;20472;-71
2023/05/26 01:00:27;;;;;;;20.33;12.03;;;10.60;99.90;;;;;;5034320;28;20487;-71
2023/05/26 01:02:58;;;;;;;23.27;12.50;;;10.60;99.90;;;;;;5033679;28;20501;-71
2023/05/26 01:05:25;;;;;;;15.47;11.70;;;10.50;99.90;;;;;;5033925;28;20968;-71
2023/05/26 01:07:52;;;;;;;23.57;12.27;;;10.50;99.90;;;;;;5041589;28;20454;-71
2023/05/26 01:10:19;;;;;;;27.97;13.17;;;10.40;99.90;;;;;;5041813;28;20490;-71
2023/05/26 01:12:51;;;;;;;25.37;12.13;;;10.40;99.90;;;;;;5033872;28;20477;-71
2023/05/26 01:15:22;;;;;;;28.23;11.80;;;10.40;99.90;;;;;;5040211;28;20449;-71
2023/05/26 01:17:58;;;;;;;22.93;11.93;;;10.40;99.90;;;;;;5045048;28;20491;-71
2023/05/26 01:20:29;;;;;;;19.53;12.30;;;10.30;99.90;;;;;;5038155;28;20458;-71
2023/05/26 01:23:22;;;;;;;23.47;11.93;;;10.30;99.90;;;;;;5040745;28;20482;-71
2023/05/26 01:25:57;;;;;;;22.87;11.53;;;10.30;99.90;;;;;;5030820;28;20485;-71
2023/05/26 01:28:27;;;;;;;24.30;11.90;;;10.30;99.90;;;;;;5033554;28;20444;-71
2023/05/26 01:30:54;;;;;;;18.87;11.33;;;10.30;99.90;;;;;;5042371;28;21000;-71
2023/05/26 01:33:21;;;;;;;22.43;11.70;;;10.30;99.90;;;;;;5038432;28;20453;-71
2023/05/26 01:35:47;;;;;;;20.03;12.03;;;10.30;99.90;;;;;;5033234;28;20493;-71
2023/05/26 01:38:14;;;;;;;19.40;11.30;;;10.20;99.90;;;;;;5036738;28;20454;-70
2023/05/26 01:40:44;;;;;;;17.57;11.63;;;10.20;99.90;;;;;;5032843;28;21193;-71
2023/05/26 01:43:17;;;;;;;18.30;11.60;;;10.20;99.90;;;;;;5033294;28;20446;-71
2023/05/26 01:45:50;;;;;;;17.30;11.60;;;10.10;99.90;;;;;;5042431;28;20506;-71
2023/05/26 01:48:18;;;;;;;19.73;12.80;;;10.10;99.90;;;;;;5041628;28;20481;-71
2023/05/26 01:50:52;;;;;;;21.47;12.20;;;10.10;99.90;;;;;;5030720;28;20560;-70
2023/05/26 01:53:22;;;;;;;21.33;12.13;;;10.10;99.90;;;;;;5043234;28;20469;-71
2023/05/26 01:55:51;;;;;;;25.80;12.67;;;10.10;99.90;;;;;;5040989;28;20946;-71
2023/05/26 01:58:19;;;;;;;23.53;11.43;;;10.10;99.90;;;;;;5032775;28;20458;-71
2023/05/26 02:00:50;;;;;;;23.27;12.43;;;10.10;99.90;;;;;;5032563;28;20497;-71
2023/05/26 02:03:17;;;;;;;19.10;11.63;;;10.00;99.90;;;;;;5032526;28;20520;-70
2023/05/26 02:05:43;;;;;;;22.23;12.17;;;10.00;99.90;;;;;;5032892;28;20442;-71
2023/05/26 02:08:11;;;;;;;17.80;11.37;;;10.00;99.90;;;;;;5049484;28;20883;-70
2023/05/26 02:10:37;;;;;;;16.33;11.60;;;10.00;99.90;;;;;;5035692;28;20482;-71
2023/05/26 02:13:04;;;;;;;19.43;11.80;;;9.90;99.90;;;;;;5034899;28;20446;-71
2023/05/26 02:15:31;;;;;;;19.07;11.17;;;9.90;99.90;;;;;;5044494;28;20981;-71
2023/05/26 02:17:59;;;;;;;24.20;11.90;;;9.90;99.90;;;;;;5037945;28;20450;-71
2023/05/26 02:20:26;;;;;;;23.73;12.20;;;9.90;99.90;;;;;;5032654;28;20500;-71
2023/05/26 02:22:52;;;;;;;19.40;11.50;;;9.80;99.90;;;;;;5033015;28;20478;-71
2023/05/26 02:25:20;;;;;;;26.73;12.83;;;9.80;99.90;;;;;;5040009;28;20524;-70
2023/05/26 02:27:47;;;;;;;24.50;12.10;;;9.90;99.90;;;;;;5032313;28;20461;-70
2023/05/26 02:30:13;;;;;;;18.40;12.83;;;9.90;99.90;;;;;;5038250;28;20485;-71
2023/05/26 02:32:40;;;;;;;28.30;12.20;;;9.90;99.90;;;;;;5032267;28;20500;-70
2023/05/26 02:35:09;;;;;;;28.73;11.97;;;9.80;99.90;;;;;;5032200;28;20476;-71
2023/05/26 02:37:36;;;;;;;25.60;12.10;;;9.80;99.90;;;;;;5032568;28;20453;-70
2023/05/26 02:40:04;;;;;;;21.20;11.20;;;9.80;99.90;;;;;;5031740;28;20926;-70
2023/05/26 02:42:31;;;;;;;22.30;12.47;;;9.70;99.90;;;;;;5039512;28;20466;-70
2023/05/26 02:44:57;;;;;;;20.70;11.27;;;9.70;99.90;;;;;;5043215;28;20461;-70
2023/05/26 02:47:24;;;;;;;21.10;11.60;;;9.70;99.90;;;;;;5035863;28;20453;-70
2023/05/26 02:49:51;;;;;;;23.53;13.03;;;9.70;99.90;;;;;;5041062;28;20535;-70
2023/05/26 02:52:19;;;;;;;22.70;11.87;;;9.60;99.90;;;;;;5039330;28;20531;-70
2023/05/26 02:54:45;;;;;;;32.40;11.17;;;9.60;99.90;;;;;;5032615;28;20446;-70
2023/05/26 02:57:12;;;;;;;32.87;13.63;;;9.60;99.90;;;;;;5038732;28;20450;-71
2023/05/26 02:59:38;;;;;;;25.20;12.40;;;9.60;99.90;;;;;;5031306;28;20451;-70
2023/05/26 03:02:05;;;;;;;22.23;11.77;;;9.50;99.90;;;;;;5035385;28;20803;-71
2023/05/26 03:04:32;;;;;;;28.40;12.47;;;9.50;99.90;;;;;;5035693;28;20446;-71
2023/05/26 03:06:59;;;;;;;24.33;12.50;;;9.50;99.90;;;;;;5047027;28;20458;-70
2023/05/26 03:09:27;;;;;;;21.93;12.73;;;9.40;99.90;;;;;;5035767;28;21058;-70
2023/05/26 03:11:53;;;;;;;23.73;12.63;;;9.40;99.90;;;;;;5031475;28;20474;-70
2023/05/26 03:14:20;;;;;;;26.40;13.13;;;9.40;99.90;;;;;;5037833;28;20450;-70
2023/05/26 03:16:46;;;;;;;25.53;14.00;;;9.40;99.90;;;;;;5031408;28;20608;-70
2023/05/26 03:19:13;;;;;;;26.50;12.97;;;9.30;99.90;;;;;;5031256;28;21123;-70
2023/05/26 03:21:40;;;;;;;28.07;13.07;;;9.40;99.90;;;;;;5036500;28;20505;-71
2023/05/26 03:24:07;;;;;;;40.93;15.33;;;9.40;99.90;;;;;;5031121;28;20460;-70
2023/05/26 03:26:35;;;;;;;27.70;13.90;;;9.30;99.90;;;;;;5031484;28;20458;-70
2023/05/26 03:29:01;;;;;;;26.67;12.47;;;9.30;99.90;;;;;;5035504;28;20450;-70
2023/05/26 03:31:28;;;;;;;28.13;13.20;;;9.30;99.90;;;;;;5035891;28;20486;-70
2023/05/26 03:33:55;;;;;;;33.73;13.23;;;9.30;99.90;;;;;;5031020;28;20871;-70
2023/05/26 03:36:21;;;;;;;28.70;13.47;;;9.30;99.90;;;;;;5031855;28;20446;-70
2023/05/26 03:38:48;;;;;;;20.73;12.03;;;9.30;99.90;;;;;;5035288;28;20557;-70
2023/05/26 03:41:14;;;;;;;32.20;12.53;;;9.30;99.90;;;;;;5031026;28;20466;-70
2023/05/26 03:43:42;;;;;;;36.07;13.50;;;9.20;99.90;;;;;;5030896;28;20545;-71
2023/05/26 03:46:09;;;;;;;24.83;13.00;;;9.20;99.90;;;;;;5031046;28;20512;-70
2023/05/26 03:48:36;;;;;;;31.57;13.93;;;9.20;99.90;;;;;;5036560;28;20443;-70
2023/05/26 03:51:02;;;;;;;26.63;12.77;;;9.20;99.90;;;;;;5040786;28;20555;-70
2023/05/26 03:53:29;;;;;;;29.93;13.73;;;9.20;99.90;;;;;;5041221;28;20519;-70
2023/05/26 03:55:56;;;;;;;29.33;12.70;;;9.20;99.90;;;;;;5031825;28;20520;-70
2023/05/26 03:58:23;;;;;;;38.60;13.80;;;9.20;99.90;;;;;;5030609;28;20512;-70
2023/05/26 04:00:51;;;;;;;40.83;12.40;;;9.20;99.90;;;;;;5030387;28;20450;-70
2023/05/26 04:03:18;;;;;;;24.50;12.90;;;9.20;99.90;;;;;;5039188;28;20465;-70
2023/05/26 04:05:44;;;;;;;32.57;12.57;;;9.20;99.90;;;;;;5031300;28;20500;-70
2023/05/26 04:08:11;;;;;;;36.40;14.03;;;9.20;99.90;;;;;;5042817;28;20453;-70
2023/05/26 04:10:37;;;;;;;31.70;13.10;;;9.20;99.90;;;;;;5042211;28;20489;-70
2023/05/26 04:13:04;;;;;;;27.43;13.37;;;9.20;99.90;;;;;;5031830;28;20454;-70
2023/05/26 04:15:31;;;;;;;27.60;11.10;;;9.20;99.90;;;;;;5045754;28;20481;-71
2023/05/26 04:17:59;;;;;;;26.53;12.10;;;9.20;99.90;;;;;;5031245;28;20946;-70
2023/05/26 04:20:25;;;;;;;32.37;12.40;;;9.30;99.90;;;;;;5030323;28;20458;-70
2023/05/26 04:22:52;;;;;;;23.93;12.77;;;9.30;99.90;;;;;;5038588;28;20482;-70
2023/05/26 04:25:19;;;;;;;29.73;12.70;;;9.30;99.90;;;;;;5037996;28;20449;-70
2023/05/26 04:27:46;;;;;;;28.03;12.60;;;9.30;99.90;;;;;;5031033;28;20500;-70
2023/05/26 04:30:13;;;;;;;29.90;11.60;;;9.30;99.90;;;;;;5044012;28;20492;-70
2023/05/26 04:32:40;;;;;;;33.27;12.90;;;9.40;99.90;;;;;;5030488;28;20474;-71
2023/05/26 04:35:10;;;;;;;30.63;12.27;;;9.40;99.90;;;;;;5030387;28;20508;-70
2023/05/26 04:37:38;;;;;;;31.20;12.30;;;9.40;99.90;;;;;;5035863;28;20525;-70
2023/05/26 04:40:06;;;;;;;35.93;13.27;;;9.50;99.90;;;;;;5029866;28;20472;-70
2023/05/26 04:42:34;;;;;;;38.17;13.87;;;9.70;99.90;;;;;;5040450;28;20915;-70
2023/05/26 04:45:01;;;;;;;24.23;11.37;;;9.50;99.90;;;;;;5030626;28;20921;-70
2023/05/26 04:47:32;;;;;;;31.07;11.73;;;9.60;99.90;;;;;;5034521;28;20454;-70
2023/05/26 04:49:58;;;;;;;33.73;12.43;;;9.60;99.90;;;;;;5030679;28;20576;-70
2023/05/26 04:52:26;;;;;;;26.10;11.17;;;9.70;99.90;;;;;;5029586;28;20478;-71
2023/05/26 04:54:53;;;;;;;36.20;12.30;;;9.70;99.90;;;;;;5029806;28;20877;-71
2023/05/26 04:57:20;;;;;;;28.47;11.10;;;9.80;99.90;;;;;;5035023;28;20461;-71
2023/05/26 04:59:47;;;;;;;36.57;11.40;;;9.90;99.90;;;;;;5032530;28;20458;-70
2023/05/26 05:02:13;;;;;;;27.13;11.30;;;10.00;99.90;;;;;;5038701;28;20470;-70
2023/05/26 05:04:42;;;;;;;23.97;12.13;;;10.00;99.90;;;;;;5030121;28;20920;-70
2023/05/26 05:07:09;;;;;;;36.33;11.20;;;10.10;99.90;;;;;;5038508;28;20565;-70
2023/05/26 05:09:37;;;;;;;39.70;12.43;;;10.10;99.90;;;;;;5029916;28;20468;-70
2023/05/26 05:12:05;;;;;;;49.50;13.37;;;10.20;99.90;;;;;;5029594;28;20482;-70
2023/05/26 05:14:32;;;;;;;35.57;13.90;;;10.30;99.90;;;;;;5037034;28;20462;-70
2023/05/26 05:16:59;;;;;;;36.90;11.37;;;10.40;99.90;;;;;;5029635;28;20935;-71
2023/05/26 05:19:26;;;;;;;35.53;11.60;;;10.50;99.90;;;;;;5035443;28;20810;-70
2023/05/26 05:21:53;;;;;;;38.33;12.03;;;10.60;99.90;;;;;;5037293;28;20477;-71
2023/05/26 05:24:20;;;;;;;42.57;11.17;;;10.70;99.90;;;;;;5030023;28;20454;-71
2023/05/26 05:26:47;;;;;;;37.60;12.20;;;10.70;99.90;;;;;;5043646;28;20514;-71
2023/05/26 05:29:14;;;;;;;27.93;11.83;;;10.80;99.90;;;;;;5051749;28;20513;-71
2023/05/26 05:31:41;;;;;;;35.93;12.17;;;10.90;99.90;;;;;;5037755;28;20994;-72
2023/05/26 05:34:07;;;;;;;37.03;11.83;;;11.00;99.90;;;;;;5036559;28;20457;-71
2023/05/26 05:36:34;;;;;;;33.97;11.90;;;11.10;99.90;;;;;;5037969;28;20531;-71
2023/05/26 05:39:00;;;;;;;34.43;13.27;;;11.20;99.90;;;;;;5033118;28;20508;-71
2023/05/26 05:41:28;;;;;;;33.43;11.47;;;11.20;99.90;;;;;;5034939;28;20478;-71
2023/05/26 05:43:57;;;;;;;34.73;12.10;;;11.30;99.90;;;;;;5033230;28;20824;-71
2023/05/26 05:46:24;;;;;;;32.90;10.70;;;11.50;99.90;;;;;;5033143;28;20477;-71
2023/05/26 05:48:50;;;;;;;30.50;10.70;;;11.60;99.90;;;;;;5039190;28;20453;-71
2023/05/26 05:51:17;;;;;;;29.17;10.97;;;11.70;99.90;;;;;;5036844;28;20498;-71
2023/05/26 05:53:44;;;;;;;56.63;11.27;;;11.90;99.90;;;;;;5039733;28;20836;-71
2023/05/26 05:56:11;;;;;;;24.03;8.77;;;12.00;99.90;;;;;;5033200;28;20449;-71
2023/05/26 05:58:38;;;;;;;26.70;10.53;;;12.20;99.90;;;;;;5032725;28;20460;-72
2023/05/26 06:01:06;;;;;;;43.93;11.00;;;12.40;99.90;;;;;;5032112;28;20461;-72
2023/05/26 06:03:32;;;;;;;31.30;9.47;;;12.50;99.90;;;;;;5032857;28;20860;-71
2023/05/26 06:06:00;;;;;;;33.47;12.13;;;12.60;99.90;;;;;;5034671;28;20456;-72
2023/05/26 06:08:26;;;;;;;30.37;10.43;;;12.70;99.90;;;;;;5045132;28;20453;-72
2023/05/26 06:10:53;;;;;;;34.03;9.77;;;12.80;99.90;;;;;;5034490;28;20504;-72
2023/05/26 06:13:19;;;;;;;37.17;10.10;;;13.00;99.90;;;;;;5044520;28;20452;-72
2023/05/26 06:15:46;;;;;;;24.97;9.80;;;13.10;99.90;;;;;;5035970;28;20453;-72
2023/05/26 06:18:14;;;;;;;37.73;9.70;;;13.10;99.90;;;;;;5034268;28;20457;-72
2023/05/26 06:20:41;;;;;;;35.03;10.90;;;13.30;99.90;;;;;;5032107;28;20450;-71
2023/05/26 06:23:07;;;;;;;28.37;10.47;;;13.40;99.90;;;;;;5032251;28;20449;-72
2023/05/26 06:25:34;;;;;;;33.33;9.17;;;13.60;99.90;;;;;;5041435;28;21225;-71
2023/05/26 06:28:00;;;;;;;30.80;9.60;;;13.70;99.90;;;;;;5042209;28;20519;-71
2023/05/26 06:30:27;;;;;;;22.97;8.87;;;13.80;99.90;;;;;;5040375;28;20449;-71
2023/05/26 06:32:54;;;;;;;32.07;10.20;;;14.00;99.90;;;;;;5034018;28;20477;-72
2023/05/26 06:35:24;;;;;;;32.20;9.27;;;14.20;99.90;;;;;;5043595;28;20511;-72
2023/05/26 06:37:50;;;;;;;30.30;9.73;;;14.40;99.90;;;;;;5031262;28;20882;-71
2023/05/26 06:40:17;;;;;;;34.40;9.57;;;14.60;99.90;;;;;;5032359;28;20457;-72
2023/05/26 06:42:44;;;;;;;33.23;8.90;;;14.80;99.90;;;;;;5035882;28;20470;-72
2023/05/26 06:45:11;;;;;;;27.83;8.93;;;14.90;99.90;;;;;;5032066;28;20450;-71
2023/05/26 06:47:38;;;;;;;33.90;9.80;;;14.90;99.90;;;;;;5038301;28;20507;-71
2023/05/26 06:50:05;;;;;;;32.60;8.90;;;15.00;99.90;;;;;;5039791;28;20486;-71
2023/05/26 06:52:33;;;;;;;31.03;8.97;;;15.10;99.90;;;;;;5031922;28;20485;-71
2023/05/26 06:55:00;;;;;;;35.67;9.47;;;15.20;99.90;;;;;;5039989;28;20484;-72
2023/05/26 06:57:26;;;;;;;26.93;8.87;;;15.40;99.90;;;;;;5037537;28;20507;-71
2023/05/26 06:59:53;;;;;;;28.83;9.10;;;15.60;99.90;;;;;;5031298;28;20562;-70
2023/05/26 07:02:19;;;;;;;38.33;7.97;;;15.90;99.90;;;;;;5042529;28;21035;-71
2023/05/26 07:04:46;;;;;;;23.27;8.20;;;16.00;99.90;;;;;;5039906;28;20515;-72
2023/05/26 07:07:13;;;;;;;28.43;8.40;;;16.20;99.90;;;;;;5036771;28;20884;-73
2023/05/26 07:09:41;;;;;;;30.53;7.87;;;16.40;99.90;;;;;;5045765;28;20460;-72
2023/05/26 07:12:07;;;;;;;38.63;9.57;;;16.60;99.90;;;;;;5036452;28;20493;-72
2023/05/26 07:14:34;;;;;;;28.00;9.17;;;16.80;99.90;;;;;;5045390;28;20453;-72
2023/05/26 07:17:01;;;;;;;28.63;9.30;;;16.80;99.90;;;;;;5032599;28;20454;-72
2023/05/26 07:19:27;;;;;;;20.37;8.00;;;17.00;99.90;;;;;;5039578;28;20465;-72
2023/05/26 07:21:54;;;;;;;26.33;8.00;;;17.20;99.90;;;;;;5030962;28;20470;-72
2023/05/26 07:24:20;;;;;;;34.47;8.17;;;17.30;99.90;;;;;;5031272;28;20450;-71
2023/05/26 07:26:48;;;;;;;31.43;8.47;;;17.50;99.90;;;;;;5033788;28;20461;-72
2023/05/26 07:29:15;;;;;;;23.33;7.60;;;17.60;99.90;;;;;;5040818;28;20481;-72
2023/05/26 07:31:42;;;;;;;26.00;7.87;;;17.60;99.90;;;;;;5035220;28;21062;-72
2023/05/26 07:34:10;;;;;;;36.83;8.00;;;17.70;99.90;;;;;;5032393;28;20458;-68
2023/05/26 07:36:36;;;;;;;23.20;7.60;;;17.90;99.90;;;;;;5031059;28;20460;-69
2023/05/26 07:39:03;;;;;;;27.00;7.00;;;18.00;99.90;;;;;;5038198;28;20865;-69
2023/05/26 07:41:30;;;;;;;31.57;8.00;;;18.20;99.90;;;;;;5033926;28;20469;-69
2023/05/26 07:43:58;;;;;;;28.37;7.73;;;18.20;99.90;;;;;;5030885;28;20457;-69
2023/05/26 07:46:24;;;;;;;29.33;7.80;;;18.50;99.90;;;;;;5032551;28;20457;-69
2023/05/26 07:48:51;;;;;;;26.07;8.30;;;18.50;99.90;;;;;;5037828;28;20453;-69
2023/05/26 07:51:18;;;;;;;27.53;7.70;;;18.70;99.90;;;;;;5042770;28;21177;-69
2023/05/26 07:53:44;;;;;;;33.97;8.53;;;18.90;99.90;;;;;;5030360;28;20428;-69
2023/05/26 07:56:11;;;;;;;35.63;8.70;;;19.00;99.90;;;;;;5033829;28;20556;-70
2023/05/26 07:58:39;;;;;;;23.57;7.93;;;19.30;99.90;;;;;;5030535;28;20490;-69
2023/05/26 08:01:07;;;;;;;25.00;7.87;;;19.40;99.90;;;;;;5030534;28;20473;-69
2023/05/26 08:03:34;;;;;;;27.20;8.10;;;19.40;99.90;;;;;;5033304;28;20440;-69
2023/05/26 08:06:00;;;;;;;20.03;8.03;;;19.40;99.90;;;;;;5034985;28;20907;-69
2023/05/26 08:08:27;;;;;;;26.60;7.40;;;19.60;99.90;;;;;;5041674;28;20497;-69
2023/05/26 08:10:54;;;;;;;26.53;8.40;;;19.80;99.90;;;;;;5039779;28;20788;-70
2023/05/26 08:13:21;;;;;;;31.77;7.80;;;20.10;99.90;;;;;;5037631;28;20514;-71
2023/05/26 08:15:47;;;;;;;26.27;7.17;;;20.30;99.90;;;;;;5036731;28;20557;-71
2023/05/26 08:18:15;;;;;;;23.20;7.23;;;20.50;99.90;;;;;;5029699;28;20928;-70
2023/05/26 08:20:42;;;;;;;26.33;7.60;;;20.80;99.90;;;;;;5029267;28;20599;-71
2023/05/26 08:23:09;;;;;;;24.07;6.60;;;20.80;99.90;;;;;;5032551;28;21005;-71
2023/05/26 08:25:35;;;;;;;34.20;8.47;;;20.90;99.90;;;;;;5037468;28;20457;-71
2023/05/26 08:28:02;;;;;;;24.27;6.80;;;21.00;99.90;;;;;;5029472;28;20599;-72
2023/05/26 08:30:28;;;;;;;27.90;6.70;;;20.90;99.90;;;;;;5035578;28;20449;-71
2023/05/26 08:32:55;;;;;;;27.30;6.93;;;20.60;99.90;;;;;;5030156;28;20464;-70
2023/05/26 08:35:27;;;;;;;22.00;7.03;;;20.50;99.90;;;;;;5029588;28;20854;-70
2023/05/26 08:37:54;;;;;;;26.23;7.27;;;20.40;99.90;;;;;;5029707;28;20496;-70
2023/05/26 08:40:21;;;;;;;21.50;6.20;;;20.50;99.90;;;;;;5034871;28;20454;-70
2023/05/26 08:42:52;;;;;;;15.47;5.63;;;20.40;99.90;;;;;;5029340;28;20473;-71
2023/05/26 08:45:20;;;;;;;22.07;6.40;;;20.60;99.90;;;;;;5033210;28;20449;-72
2023/05/26 08:47:48;;;;;;;30.70;7.40;;;20.90;99.90;;;;;;5040835;28;20460;-71
2023/05/26 08:50:16;;;;;;;23.73;7.40;;;21.30;99.90;;;;;;5039872;28;20454;-71
2023/05/26 08:52:46;;;;;;;32.20;6.60;;;21.40;99.90;;;;;;5029299;28;20489;-72
2023/05/26 08:55:14;;;;;;;26.43;6.77;;;21.50;99.90;;;;;;5033448;28;20465;-71
2023/05/26 08:57:42;;;;;;;21.17;7.03;;;21.60;99.90;;;;;;5034701;28;20507;-71
2023/05/26 09:00:12;;;;;;;18.53;7.20;;;21.50;99.90;;;;;;5032078;28;20500;-72
2023/05/26 09:02:39;;;;;;;27.70;7.50;;;21.40;99.90;;;;;;5033246;28;20839;-70
2023/05/26 09:05:07;;;;;;;31.80;8.03;;;21.40;99.90;;;;;;5033430;28;20445;-73
2023/05/26 09:07:33;;;;;;;26.97;6.90;;;21.70;99.90;;;;;;5043773;28;20444;-73
2023/05/26 09:10:19;;;;;;;26.30;6.63;;;22.00;99.90;;;;;;5040153;28;20455;-71
2023/05/26 09:12:46;;;;;;;22.17;6.20;;;21.90;99.90;;;;;;5032947;28;20481;-72
2023/05/26 09:15:13;;;;;;;25.77;6.50;;;21.90;99.90;;;;;;5033931;28;20465;-72
2023/05/26 09:17:42;;;;;;;27.10;7.33;;;21.80;99.90;;;;;;5041525;28;20499;-72
2023/05/26 09:20:11;;;;;;;21.10;7.40;;;21.70;99.90;;;;;;5032524;28;20868;-71
2023/05/26 09:22:39;;;;;;;25.23;6.50;;;21.50;99.90;;;;;;5034302;28;20500;-71
2023/05/26 09:25:07;;;;;;;21.53;6.63;;;21.50;99.90;;;;;;5035910;28;20456;-71
2023/05/26 09:27:35;;;;;;;21.50;6.70;;;21.70;99.90;;;;;;5042716;28;20450;-71
2023/05/26 09:30:05;;;;;;;16.73;5.60;;;21.60;99.90;;;;;;5036262;28;21213;-72
2023/05/26 09:32:33;;;;;;;23.33;6.20;;;21.70;99.90;;;;;;5032845;28;20488;-71
2023/05/26 09:35:01;;;;;;;17.03;7.10;;;21.80;99.90;;;;;;5032537;28;20459;-71
2023/05/26 09:37:31;;;;;;;26.10;6.13;;;21.90;99.90;;;;;;5040420;28;20874;-71
2023/05/26 09:40:09;;;;;;;23.07;6.30;;;22.00;99.90;;;;;;5040933;28;20452;-70
2023/05/26 09:42:37;;;;;;;22.60;6.27;;;22.20;99.90;;;;;;5032940;28;20530;-71
2023/05/26 09:45:04;;;;;;;23.73;6.90;;;22.00;99.90;;;;;;5033793;28;20427;-70
2023/05/26 09:47:34;;;;;;;24.83;6.53;;;22.00;99.90;;;;;;5043765;28;20490;-71
2023/05/26 09:50:04;;;;;;;28.87;6.90;;;22.10;99.90;;;;;;5038217;28;20483;-71
2023/05/26 09:52:32;;;;;;;20.73;5.93;;;22.30;99.90;;;;;;5042271;28;20487;-70
2023/05/26 09:54:58;;;;;;;17.67;6.20;;;22.50;99.90;;;;;;5035508;28;20832;-71
2023/05/26 09:57:28;;;;;;;19.17;6.40;;;22.30;99.90;;;;;;5032475;28;20449;-71
2023/05/26 09:59:57;;;;;;;17.00;5.23;;;22.30;99.90;;;;;;5031727;28;20464;-70
2023/05/26 10:02:26;;;;;;;18.80;7.47;;;22.40;99.90;;;;;;5039736;28;20469;-71
2023/05/26 10:04:54;;;;;;;21.20;6.37;;;22.30;99.90;;;;;;5040581;28;20971;-72
2023/05/26 10:07:22;;;;;;;21.83;6.10;;;22.40;99.90;;;;;;5040455;28;20507;-72
2023/05/26 10:09:51;;;;;;;17.63;5.80;;;22.50;99.90;;;;;;5042179;28;20449;-73
2023/05/26 10:12:20;;;;;;;16.27;6.00;;;22.30;99.90;;;;;;5039451;28;20493;-72
2023/05/26 10:14:49;;;;;;;20.07;6.33;;;22.20;99.90;;;;;;5032713;28;20484;-72
2023/05/26 10:17:16;;;;;;;17.57;6.50;;;22.30;99.90;;;;;;5031863;28;20483;-72
2023/05/26 10:19:43;;;;;;;17.50;5.37;;;22.30;99.90;;;;;;5045251;28;20459;-72
2023/05/26 10:22:14;;;;;;;17.77;6.30;;;22.40;99.90;;;;;;5033199;28;20466;-72
2023/05/26 10:24:47;;;;;;;23.03;5.73;;;22.30;99.90;;;;;;5040680;28;21026;-72
2023/05/26 10:27:20;;;;;;;16.00;6.50;;;22.40;99.90;;;;;;5041361;28;20510;-72
2023/05/26 10:30:05;;;;;;;21.00;5.90;;;22.60;99.90;;;;;;5034262;28;20485;-72
2023/05/26 10:32:46;;;;;;;27.50;6.53;;;22.80;99.90;;;;;;5032273;28;21013;-72
2023/05/26 10:35:26;;;;;;;24.30;6.13;;;22.80;99.90;;;;;;5031334;28;20973;-71
2023/05/26 10:38:09;;;;;;;20.73;5.60;;;22.90;99.90;;;;;;5031707;28;20449;-72
2023/05/26 10:40:39;;;;;;;24.40;6.00;;;23.10;99.90;;;;;;5039550;28;20942;-71
2023/05/26 10:43:13;;;;;;;19.33;6.33;;;22.90;99.90;;;;;;5031524;28;20452;-72
2023/05/26 10:45:46;;;;;;;13.60;5.83;;;22.80;99.90;;;;;;5035896;28;20539;-72
2023/05/26 10:48:13;;;;;;;17.40;5.50;;;22.80;99.90;;;;;;5031678;28;20452;-72
2023/05/26 10:51:17;;;;;;;21.20;6.43;;;23.10;99.90;;;;;;5035029;28;20969;-72
2023/05/26 10:53:45;;;;;;;18.93;5.20;;;23.20;99.90;;;;;;5023216;28;20491;-72
2023/05/26 10:56:13;;;;;;;16.40;5.53;;;23.50;99.90;;;;;;5028244;28;20528;-72
2023/05/26 10:58:42;;;;;;;21.20;6.20;;;23.50;99.90;;;;;;5029621;28;20576;-72
2023/05/26 11:01:16;;;;;;;21.13;6.27;;;23.60;99.90;;;;;;5035222;28;20485;-72
2023/05/26 11:03:44;;;;;;;21.93;6.40;;;23.80;99.90;;;;;;5031361;28;20461;-72
2023/05/26 11:06:12;;;;;;;20.23;6.57;;;23.80;99.90;;;;;;5044786;28;20732;-71
2023/05/26 11:08:40;;;;;;;16.60;5.70;;;24.10;99.90;;;;;;5036104;28;20457;-72
2023/05/26 11:11:09;;;;;;;17.20;5.40;;;24.30;99.90;;;;;;5035085;28;20977;-72
2023/05/26 11:13:43;;;;;;;22.30;5.80;;;24.20;99.90;;;;;;5031874;28;20485;-72
2023/05/26 11:16:19;;;;;;;20.23;6.40;;;24.00;99.90;;;;;;5031048;28;20507;-73
2023/05/26 11:18:51;;;;;;;26.90;6.43;;;24.00;99.90;;;;;;5037452;28;20518;-72
2023/05/26 11:21:19;;;;;;;27.90;6.10;;;23.90;99.90;;;;;;5036227;28;20472;-72
2023/05/26 11:23:46;;;;;;;23.23;6.83;;;23.80;99.90;;;;;;5030665;28;20953;-72
2023/05/26 11:26:14;;;;;;;24.63;6.20;;;23.60;99.90;;;;;;5030588;28;20449;-72
2023/05/26 11:28:44;;;;;;;20.47;5.50;;;23.80;99.90;;;;;;5036245;28;20471;-72
2023/05/26 11:31:12;;;;;;;23.53;5.67;;;23.80;99.90;;;;;;5040113;28;20556;-72
2023/05/26 11:33:41;;;;;;;20.17;5.93;;;23.90;99.90;;;;;;5030751;28;20493;-73
2023/05/26 11:36:10;;;;;;;18.73;6.10;;;23.90;99.90;;;;;;5033481;28;20458;-73
2023/05/26 11:38:37;;;;;;;12.17;5.10;;;24.00;99.90;;;;;;5037376;28;20503;-72
2023/05/26 11:41:05;;;;;;;19.73;5.40;;;24.20;99.90;;;;;;5044999;28;21053;-73
2023/05/26 11:43:32;;;;;;;19.23;6.17;;;24.40;99.90;;;;;;5042448;28;20498;-73
2023/05/26 11:46:02;;;;;;;22.27;6.60;;;24.60;99.90;;;;;;5034591;28;20457;-73
2023/05/26 11:48:35;;;;;;;15.20;5.60;;;24.60;99.90;;;;;;5040766;28;20485;-73
2023/05/26 11:51:06;;;;;;;21.43;6.07;;;24.20;99.90;;;;;;5043447;28;20885;-73
2023/05/26 11:53:33;;;;;;;17.60;5.60;;;24.30;99.90;;;;;;5037748;28;20563;-73
2023/05/26 11:56:07;;;;;;;22.33;6.13;;;24.60;99.90;;;;;;5030217;28;20449;-73
2023/05/26 11:58:36;;;;;;;12.93;6.17;;;24.80;99.90;;;;;;5032917;28;20460;-73
2023/05/26 12:01:03;;;;;;;19.43;6.30;;;24.40;99.90;;;;;;5032020;28;21066;-73
2023/05/26 12:03:36;;;;;;;23.40;6.00;;;24.10;99.90;;;;;;5030854;28;20445;-72
2023/05/26 12:06:15;;;;;;;17.70;5.70;;;24.00;99.90;;;;;;5041055;28;20461;-72
2023/05/26 12:08:47;;;;;;;27.47;6.50;;;23.80;99.90;;;;;;5030263;28;20614;-73
2023/05/26 12:11:18;;;;;;;18.97;6.20;;;23.90;99.90;;;;;;5031193;28;20477;-73
2023/05/26 12:13:45;;;;;;;17.57;5.97;;;24.30;99.90;;;;;;5031927;28;20477;-73
2023/05/26 12:16:23;;;;;;;20.40;5.70;;;24.70;99.90;;;;;;5030243;28;20476;-74
2023/05/26 12:18:54;;;;;;;16.97;5.17;;;24.60;99.90;;;;;;5029933;28;20453;-73
2023/05/26 12:21:24;;;;;;;21.33;6.33;;;24.90;99.90;;;;;;5045737;28;20526;-73
2023/05/26 12:23:51;;;;;;;17.33;6.07;;;24.90;99.90;;;;;;5039762;28;20457;-73
2023/05/26 12:26:19;;;;;;;25.50;6.80;;;25.20;99.90;;;;;;5039660;28;20557;-73
2023/05/26 12:28:45;;;;;;;19.83;5.33;;;25.40;99.90;;;;;;5035014;28;20450;-73
2023/05/26 12:31:12;;;;;;;19.30;5.23;;;25.20;99.90;;;;;;5031460;28;20485;-73
2023/05/26 12:33:39;;;;;;;20.27;6.17;;;25.20;99.90;;;;;;5030558;28;20488;-73
2023/05/26 12:36:06;;;;;;;20.47;6.27;;;25.10;99.90;;;;;;5034552;28;20460;-73
2023/05/26 12:38:43;;;;;;;17.53;5.23;;;25.00;99.90;;;;;;5030169;28;20485;-73